Warroad, Minnesota
Current Conditions -  °F | °C
As of 8:54 PM on Saturday 25 Oct 2014 (Local Time) from KRRT Reporting Station
Clear Clear  
Wind Chill: 41°   Ceiling: Unl
Heat Index: 45°   Visibility: 10mi
Dew Point: 28°   Wind: 6mph
Humidity: 53%   Direction: 250°WSW
Pressure: 29.98"   Gusts: NA
Location:  48.91°N, 95.32°W
Report Text: KRRT 260154Z AUTO 25005KT 10SM CLR 07/M02 A2998 RMK AO2
Loading
Personal Weather Stations






























Interactive Weather Map
Tropical Storm Tracking
New forecast layout! Learn more

10-Day Weather Forecast

Advertisements
Track Severe Weather on mobile